Decoded Metar for KALN (ALTON/ST LOUIS R in IL, USA) (IATA:ALN) | Meteo·Mobile Aviation Weather
aviador You're here:

KALN Decoded Metar

ALTON/ST LOUIS R in IL, USA
Report Time2019-02-16 16:50:00
UTC Time2019-02-16 17:51:37
Flight Rules vfr VFR
Wind040° at 08 kt
W.Decomp.*RWY 35: 5.0 kt HW 6.2 kt RCW
RWY 11: 2.9 kt HW 7.5 kt LCW
W.Rank040° ranks 34
Current wind is above 040° avg. (6.3)
Visibility9999 m
Phenomena:N/A
Clouds:Broken 200 Hf
Expected CloudBase > 1,600 ft AGL from Temp-Dew spread
Ceiling20,000 ft
Temp-4°C (ISA -18)
Dew Point-8°C (74% RH)
AAT-9.8°C
QNH1018 hPa
Density Alt-1,785 ft
Elevation545 ft
Report Wrong Elevation
Raw Report
KALN 161650Z 04008KT 10SM BKN200 M04/M08 A3007=

Extra information for KALN:More info

Metar Taf Metar & Taf Last 4 Metars F.Rules Stats Wind Profile Meteogram Temp Stats Airport Information Weather charts Add Link Nearby VenuesMetar ALERT Operation Metar Decoded Social comments

AIRNAV info for KALN